Time;durP1;ratioP1;P1;durP2;ratioP2;P2;SDS_P1;SDS_P2;PMS_P1;PMS_P2;Temp;Humidity;BMP_temperature;BMP_pressure;BME280_temperature;BME280_humidity;BME280_pressure;Samples;Min_cycle;Max_cycle;Signal;HPM_P1;HPM_P2
2023/07/08 00:02:32;;;;;;;;;;;22.90;59.60;;;;;;10328560;28;94485;-65
2023/07/08 00:07:34;;;;;;;;;;;22.80;59.50;;;;;;10327470;28;93827;-65
2023/07/08 00:12:36;;;;;;;;;;;22.80;59.60;;;;;;10328168;28;94658;-66
2023/07/08 00:17:37;;;;;;;;;;;22.80;59.50;;;;;;10328200;28;94591;-66
2023/07/08 00:22:40;;;;;;;;;;;22.80;59.50;;;;;;10314215;28;94480;-65
2023/07/08 00:27:42;;;;;;;;;;;22.80;59.60;;;;;;10287411;28;93936;-65
2023/07/08 00:32:44;;;;;;;;;;;22.80;59.60;;;;;;10286813;28;93620;-65
2023/07/08 00:37:46;;;;;;;;;;;22.80;59.50;;;;;;10286740;28;93643;-65
2023/07/08 00:42:48;;;;;;;;;;;22.80;59.70;;;;;;10283984;28;96111;-65
2023/07/08 00:47:51;;;;;;;;;;;22.80;59.70;;;;;;10286508;28;92526;-65
2023/07/08 00:53:13;;;;;;;;;;;22.70;59.50;;;;;;10286985;28;94682;-66
2023/07/08 00:58:16;;;;;;;;;;;22.70;59.60;;;;;;10283055;28;94269;-65
2023/07/08 01:03:19;;;;;;;;;;;22.70;59.60;;;;;;10286418;28;94662;-65
2023/07/08 01:08:28;;;;;;;;;;;22.70;59.60;;;;;;10284913;28;94534;-65
2023/07/08 01:13:32;;;;;;;;;;;22.70;59.60;;;;;;10284705;28;93628;-65
2023/07/08 01:18:35;;;;;;;;;;;22.70;59.60;;;;;;10288472;28;93759;-65
2023/07/08 01:23:37;;;;;;;;;;;22.70;59.60;;;;;;10292216;28;94535;-66
2023/07/08 01:28:39;;;;;;;;;;;22.60;59.50;;;;;;10292686;28;94546;-65
2023/07/08 01:33:41;;;;;;;;;;;22.60;59.60;;;;;;10290867;28;96947;-65
2023/07/08 01:38:43;;;;;;;;;;;22.60;59.60;;;;;;10292776;28;94502;-66
2023/07/08 01:43:45;;;;;;;;;;;22.60;59.60;;;;;;10292885;28;94861;-66
2023/07/08 01:48:50;;;;;;;;;;;22.60;59.60;;;;;;10290220;28;94672;-65
2023/07/08 01:53:52;;;;;;;;;;;22.60;59.60;;;;;;10292166;28;94553;-65
2023/07/08 01:58:54;;;;;;;;;;;22.60;59.60;;;;;;10290555;28;94556;-66
2023/07/08 02:03:56;;;;;;;;;;;22.60;59.60;;;;;;10291563;28;93122;-64
2023/07/08 02:08:58;;;;;;;;;;;22.60;59.60;;;;;;10291513;28;93157;-66
2023/07/08 02:14:01;;;;;;;;;;;22.50;59.60;;;;;;10290923;28;94617;-66
2023/07/08 02:19:02;;;;;;;;;;;22.50;59.60;;;;;;10290863;28;94598;-65
2023/07/08 02:24:04;;;;;;;;;;;22.50;59.60;;;;;;10287927;28;95979;-65
2023/07/08 02:29:06;;;;;;;;;;;22.50;59.60;;;;;;10287215;28;94552;-66
2023/07/08 02:34:08;;;;;;;;;;;22.50;59.50;;;;;;10290008;28;93938;-65
2023/07/08 02:39:10;;;;;;;;;;;22.50;59.60;;;;;;10289415;28;94495;-65
2023/07/08 02:44:12;;;;;;;;;;;22.50;59.60;;;;;;10290868;28;93653;-68
2023/07/08 02:49:14;;;;;;;;;;;22.50;59.50;;;;;;10288970;28;94478;-66
2023/07/08 02:54:16;;;;;;;;;;;22.40;59.40;;;;;;10289811;28;93751;-66
2023/07/08 02:59:17;;;;;;;;;;;22.40;59.50;;;;;;10291616;28;93896;-65
2023/07/08 03:04:21;;;;;;;;;;;22.40;59.40;;;;;;10289298;28;93572;-65
2023/07/08 03:09:23;;;;;;;;;;;22.40;59.40;;;;;;10288722;28;93573;-65
2023/07/08 03:14:25;;;;;;;;;;;22.40;59.50;;;;;;10287061;28;96845;-65
2023/07/08 03:19:27;;;;;;;;;;;22.40;59.40;;;;;;10287756;28;94289;-65
2023/07/08 03:24:29;;;;;;;;;;;22.40;59.40;;;;;;10288629;28;93585;-65
2023/07/08 03:29:31;;;;;;;;;;;22.40;59.40;;;;;;10288301;28;94565;-65
2023/07/08 03:34:33;;;;;;;;;;;22.40;59.40;;;;;;10288634;28;94533;-66
2023/07/08 03:39:35;;;;;;;;;;;22.40;59.50;;;;;;10287935;28;93938;-66
2023/07/08 03:44:37;;;;;;;;;;;22.40;59.40;;;;;;10270538;28;93656;-66
2023/07/08 03:49:38;;;;;;;;;;;22.40;59.30;;;;;;10288001;28;93775;-66
2023/07/08 03:54:40;;;;;;;;;;;22.40;59.30;;;;;;10287512;28;94509;-66
2023/07/08 03:59:42;;;;;;;;;;;22.40;59.30;;;;;;10288197;28;94579;-66
2023/07/08 04:04:44;;;;;;;;;;;22.40;59.20;;;;;;10285201;28;96882;-65
2023/07/08 04:09:49;;;;;;;;;;;22.40;59.20;;;;;;10287251;28;94563;-65
2023/07/08 04:14:51;;;;;;;;;;;22.40;59.20;;;;;;10285088;28;93653;-65
2023/07/08 04:19:53;;;;;;;;;;;22.40;59.10;;;;;;10285921;28;93657;-65
2023/07/08 04:24:55;;;;;;;;;;;22.40;59.10;;;;;;10285644;28;93593;-65
2023/07/08 04:29:57;;;;;;;;;;;22.40;59.10;;;;;;10285178;28;92646;-65
2023/07/08 04:34:59;;;;;;;;;;;22.40;59.10;;;;;;10287113;28;93672;-65
2023/07/08 04:40:01;;;;;;;;;;;22.40;59.10;;;;;;10287351;28;93701;-64
2023/07/08 04:45:05;;;;;;;;;;;22.40;59.10;;;;;;10286496;28;94458;-64
2023/07/08 04:50:08;;;;;;;;;;;22.40;59.10;;;;;;10704864;22;94132;-66
2023/07/08 04:55:09;;;;;;;;;;;22.40;59.10;;;;;;10273483;28;96440;-64
2023/07/08 05:00:16;;;;;;;;;;;22.40;59.10;;;;;;10328208;28;93633;-65
2023/07/08 05:05:18;;;;;;;;;;;22.50;59.10;;;;;;10296464;28;93628;-65
2023/07/08 05:10:20;;;;;;;;;;;22.50;59.10;;;;;;10292198;28;94561;-60
2023/07/08 05:15:22;;;;;;;;;;;22.50;59.20;;;;;;10292706;28;94732;-60
2023/07/08 05:20:24;;;;;;;;;;;22.50;59.30;;;;;;10292560;28;93810;-64
2023/07/08 05:25:27;;;;;;;;;;;22.50;59.30;;;;;;10293358;28;95795;-61
2023/07/08 05:30:29;;;;;;;;;;;22.50;59.30;;;;;;10292253;28;93952;-61
2023/07/08 05:35:30;;;;;;;;;;;22.50;59.30;;;;;;10291440;28;94422;-61
2023/07/08 05:40:32;;;;;;;;;;;22.50;59.30;;;;;;10289814;28;93880;-65
2023/07/08 05:45:35;;;;;;;;;;;22.50;59.40;;;;;;10288956;28;97038;-61
2023/07/08 05:50:37;;;;;;;;;;;22.60;59.50;;;;;;10290934;28;93644;-61
2023/07/08 05:55:40;;;;;;;;;;;22.60;59.50;;;;;;10291058;28;93584;-61
2023/07/08 06:00:42;;;;;;;;;;;22.60;59.50;;;;;;10272835;28;93645;-61
2023/07/08 06:05:44;;;;;;;;;;;22.60;59.40;;;;;;10290285;28;94499;-60
2023/07/08 06:10:46;;;;;;;;;;;22.70;59.50;;;;;;10273349;28;94641;-60
2023/07/08 06:15:48;;;;;;;;;;;22.70;59.40;;;;;;10256587;28;93545;-61
2023/07/08 06:20:57;;;;;;;;;;;22.70;59.40;;;;;;10272948;28;93720;-61
2023/07/08 06:25:59;;;;;;;;;;;22.80;59.40;;;;;;10289732;28;93496;-61
2023/07/08 06:31:01;;;;;;;;;;;22.80;59.30;;;;;;10290163;28;94883;-61
2023/07/08 06:36:03;;;;;;;;;;;22.80;59.30;;;;;;10286591;28;96305;-60
2023/07/08 06:41:04;;;;;;;;;;;22.90;59.40;;;;;;10288906;28;94683;-60
2023/07/08 06:46:06;;;;;;;;;;;22.90;59.40;;;;;;10289752;28;93684;-62
2023/07/08 06:51:08;;;;;;;;;;;22.90;59.50;;;;;;10288334;28;94028;-61
2023/07/08 06:56:10;;;;;;;;;;;23.00;59.60;;;;;;10289860;28;94480;-61
2023/07/08 07:01:11;;;;;;;;;;;23.00;59.60;;;;;;10288854;28;93598;-61
2023/07/08 07:06:13;;;;;;;;;;;23.10;59.80;;;;;;10272802;28;94687;-61
2023/07/08 07:11:15;;;;;;;;;;;23.10;59.60;;;;;;10290582;28;93715;-62
2023/07/08 07:16:17;;;;;;;;;;;23.20;59.60;;;;;;10288167;28;94466;-61
2023/07/08 07:21:18;;;;;;;;;;;23.30;59.50;;;;;;10272142;28;94591;-60
2023/07/08 07:26:20;;;;;;;;;;;23.30;59.50;;;;;;10287484;28;96927;-61
2023/07/08 07:31:25;;;;;;;;;;;23.30;59.50;;;;;;10286417;28;94662;-61
2023/07/08 07:36:27;;;;;;;;;;;23.30;59.80;;;;;;10286756;28;93576;-60
2023/07/08 07:41:28;;;;;;;;;;;23.30;60.30;;;;;;10288071;28;94441;-61
2023/07/08 07:46:30;;;;;;;;;;;23.30;61.00;;;;;;10286832;28;92995;-61
2023/07/08 07:51:32;;;;;;;;;;;23.40;60.80;;;;;;10287950;28;94454;-61
2023/07/08 07:56:33;;;;;;;;;;;23.40;60.80;;;;;;10287661;28;93521;-62
2023/07/08 08:01:35;;;;;;;;;;;23.50;60.20;;;;;;10288317;28;93704;-61
2023/07/08 08:06:37;;;;;;;;;;;23.50;60.20;;;;;;10273227;28;93538;-62
2023/07/08 08:11:39;;;;;;;;;;;23.50;60.20;;;;;;10278975;28;93457;-61
2023/07/08 08:16:41;;;;;;;;;;;23.50;59.60;;;;;;10281641;28;95850;-61
2023/07/08 08:21:42;;;;;;;;;;;23.40;59.40;;;;;;10288022;28;94432;-61
2023/07/08 08:26:44;;;;;;;;;;;23.40;59.30;;;;;;10268960;28;92752;-62
2023/07/08 08:31:46;;;;;;;;;;;23.40;59.20;;;;;;10287602;28;94983;-62
2023/07/08 08:36:48;;;;;;;;;;;23.30;59.20;;;;;;10269853;28;93696;-61
2023/07/08 08:41:53;;;;;;;;;;;23.30;59.20;;;;;;10287882;28;95119;-62
2023/07/08 08:47:02;;;;;;;;;;;23.30;58.90;;;;;;10287768;28;93469;-61
2023/07/08 08:52:04;;;;;;;;;;;23.40;59.10;;;;;;10287058;28;92652;-62
2023/07/08 08:57:15;;;;;;;;;;;23.40;59.30;;;;;;10287734;28;94471;-61
2023/07/08 09:02:31;;;;;;;;;;;23.40;59.70;;;;;;10285930;28;94108;-62
2023/07/08 09:07:35;;;;;;;;;;;23.40;59.50;;;;;;10284282;28;96566;-61
2023/07/08 09:12:37;;;;;;;;;;;23.30;59.60;;;;;;10285275;28;94470;-62
2023/07/08 09:17:39;;;;;;;;;;;23.20;59.50;;;;;;10287520;28;93696;-62
2023/07/08 09:22:44;;;;;;;;;;;23.20;59.70;;;;;;10269034;28;94413;-62
2023/07/08 09:27:46;;;;;;;;;;;23.20;59.70;;;;;;10285877;28;93443;-62
2023/07/08 09:32:48;;;;;;;;;;;23.10;59.70;;;;;;10267679;28;93578;-62
2023/07/08 09:37:51;;;;;;;;;;;23.10;59.80;;;;;;10285083;28;94588;-62
2023/07/08 09:42:54;;;;;;;;;;;23.10;59.80;;;;;;10275444;28;92630;-62
2023/07/08 09:47:58;;;;;;;;;;;23.10;59.90;;;;;;10291048;28;93635;-62
2023/07/08 09:53:00;;;;;;;;;;;23.10;59.90;;;;;;10290129;28;93937;-62
2023/07/08 09:58:02;;;;;;;;;;;23.10;59.90;;;;;;10286488;28;96085;-62
2023/07/08 10:03:27;;;;;;;;;;;23.10;59.80;;;;;;10289588;28;94560;-62
2023/07/08 10:08:41;;;;;;;;;;;23.20;59.80;;;;;;10288168;28;93676;-65
2023/07/08 10:13:45;;;;;;;;;;;23.20;59.70;;;;;;10289025;28;93538;-62
2023/07/08 10:18:57;;;;;;;;;;;23.30;59.50;;;;;;10288674;28;93398;-62
2023/07/08 10:23:59;;;;;;;;;;;23.40;59.50;;;;;;10288451;28;93316;-62
2023/07/08 10:29:04;;;;;;;;;;;23.40;59.40;;;;;;10289061;28;94036;-63
2023/07/08 10:34:19;;;;;;;;;;;23.40;59.40;;;;;;10289549;28;92883;-62
2023/07/08 10:39:41;;;;;;;;;;;23.40;59.30;;;;;;10289211;28;94552;-62
2023/07/08 10:44:53;;;;;;;;;;;23.50;59.40;;;;;;10289241;28;93276;-62
2023/07/08 10:49:54;;;;;;;;;;;23.50;59.30;;;;;;10204177;28;2322526;-62
2023/07/08 10:55:14;;;;;;;;;;;23.50;59.20;;;;;;10290393;28;92602;-62
2023/07/08 11:00:23;;;;;;;;;;;23.50;59.20;;;;;;10290174;28;93737;-63
2023/07/08 11:05:31;;;;;;;;;;;23.50;59.20;;;;;;10289738;28;93533;-62
2023/07/08 11:10:38;;;;;;;;;;;23.50;59.10;;;;;;10272576;28;94149;-62
2023/07/08 11:15:43;;;;;;;;;;;23.60;59.10;;;;;;10290208;28;93706;-62
2023/07/08 11:20:50;;;;;;;;;;;23.50;59.10;;;;;;10288813;28;93522;-62
2023/07/08 11:25:54;;;;;;;;;;;23.60;59.20;;;;;;10273694;28;93848;-62
2023/07/08 11:30:58;;;;;;;;;;;23.50;59.40;;;;;;10289509;28;93481;-62
2023/07/08 11:36:01;;;;;;;;;;;23.60;59.30;;;;;;10288331;28;93412;-62
2023/07/08 11:41:04;;;;;;;;;;;23.60;59.40;;;;;;10287361;28;97456;-62
2023/07/08 11:46:06;;;;;;;;;;;23.60;59.40;;;;;;10288617;28;94520;-62
2023/07/08 11:51:08;;;;;;;;;;;23.50;59.40;;;;;;10287560;28;92864;-62
2023/07/08 11:56:10;;;;;;;;;;;23.60;59.50;;;;;;10287291;28;93548;-61
2023/07/08 12:01:11;;;;;;;;;;;23.60;59.50;;;;;;10288497;28;94488;-62
2023/07/08 12:06:30;;;;;;;;;;;23.60;59.50;;;;;;10288311;28;93383;-62
2023/07/08 12:11:33;;;;;;;;;;;23.60;59.50;;;;;;10289313;28;94023;-62
2023/07/08 12:16:35;;;;;;;;;;;23.60;59.50;;;;;;10288791;28;93307;-62
2023/07/08 12:21:37;;;;;;;;;;;23.60;59.50;;;;;;10287997;28;93494;-62
2023/07/08 12:26:40;;;;;;;;;;;23.60;59.50;;;;;;10288773;28;94691;-62
2023/07/08 12:31:46;;;;;;;;;;;23.60;59.50;;;;;;10284575;28;96089;-62
2023/07/08 12:36:47;;;;;;;;;;;23.60;59.50;;;;;;10287299;28;93606;-62
2023/07/08 12:41:51;;;;;;;;;;;23.60;59.50;;;;;;10287885;28;96114;-62
2023/07/08 12:46:53;;;;;;;;;;;23.60;59.60;;;;;;10288599;28;95082;-62
2023/07/08 12:51:55;;;;;;;;;;;23.60;59.50;;;;;;10287369;28;93394;-62
2023/07/08 12:56:58;;;;;;;;;;;23.70;59.50;;;;;;10287159;28;94859;-63
2023/07/08 13:02:00;;;;;;;;;;;23.60;59.50;;;;;;10268773;28;93727;-62
2023/07/08 13:07:02;;;;;;;;;;;23.60;59.50;;;;;;10287655;28;93636;-62
2023/07/08 13:12:10;;;;;;;;;;;23.60;59.50;;;;;;10286515;28;94179;-62
2023/07/08 13:17:14;;;;;;;;;;;23.70;59.60;;;;;;10291438;28;93525;-62
2023/07/08 13:22:17;;;;;;;;;;;23.70;59.60;;;;;;10290744;28;95953;-62
2023/07/08 13:27:23;;;;;;;;;;;23.70;59.60;;;;;;10293292;28;94140;-62
2023/07/08 13:32:30;;;;;;;;;;;23.70;59.60;;;;;;10293867;28;93817;-62
2023/07/08 13:37:32;;;;;;;;;;;23.70;60.00;;;;;;10275223;28;93241;-63
2023/07/08 13:42:33;;;;;;;;;;;23.70;59.60;;;;;;10292380;28;93626;-62
2023/07/08 13:47:35;;;;;;;;;;;23.70;59.70;;;;;;10291653;28;93845;-62
2023/07/08 13:52:37;;;;;;;;;;;23.70;59.80;;;;;;10293190;28;94907;-62
2023/07/08 13:57:39;;;;;;;;;;;23.70;59.80;;;;;;10292841;28;93052;-63
2023/07/08 14:02:43;;;;;;;;;;;23.70;59.80;;;;;;10292766;28;94517;-62
2023/07/08 14:07:45;;;;;;;;;;;23.70;59.80;;;;;;10292389;28;94562;-63
2023/07/08 14:12:47;;;;;;;;;;;23.70;59.80;;;;;;10289937;28;96825;-62
2023/07/08 14:17:51;;;;;;;;;;;23.70;59.90;;;;;;10291406;28;94479;-62
2023/07/08 14:22:52;;;;;;;;;;;23.70;60.00;;;;;;10291955;28;94259;-69
2023/07/08 14:27:54;;;;;;;;;;;23.70;60.00;;;;;;10291355;28;92780;-62
2023/07/08 14:32:56;;;;;;;;;;;23.70;60.00;;;;;;10291608;28;93716;-62
2023/07/08 14:37:59;;;;;;;;;;;23.80;60.00;;;;;;10290505;28;94106;-62
2023/07/08 14:43:12;;;;;;;;;;;23.70;60.00;;;;;;10274172;28;93468;-62
2023/07/08 14:48:14;;;;;;;;;;;23.70;60.10;;;;;;10290535;28;91766;-62
2023/07/08 14:53:18;;;;;;;;;;;23.70;60.10;;;;;;10290972;28;93925;-62
2023/07/08 14:58:24;;;;;;;;;;;23.70;60.20;;;;;;10290484;28;94494;-61
2023/07/08 15:03:26;;;;;;;;;;;23.80;60.20;;;;;;10287894;28;95905;-62
2023/07/08 15:08:28;;;;;;;;;;;23.80;60.20;;;;;;10289862;28;94463;-63
2023/07/08 15:13:30;;;;;;;;;;;23.80;60.20;;;;;;10290378;28;93549;-63
2023/07/08 15:18:33;;;;;;;;;;;23.80;60.20;;;;;;10290826;28;94739;-63
2023/07/08 15:23:35;;;;;;;;;;;23.80;60.20;;;;;;10288976;28;93027;-63
2023/07/08 15:28:47;;;;;;;;;;;23.80;60.20;;;;;;10289576;28;93652;-62
2023/07/08 15:33:50;;;;;;;;;;;23.80;60.20;;;;;;10289378;28;93441;-63
2023/07/08 15:38:52;;;;;;;;;;;23.80;60.20;;;;;;10289090;28;93511;-63
2023/07/08 15:43:54;;;;;;;;;;;23.80;60.30;;;;;;10289926;28;93557;-63
2023/07/08 15:48:56;;;;;;;;;;;23.80;60.30;;;;;;10288243;28;94073;-63
2023/07/08 15:53:58;;;;;;;;;;;23.80;60.30;;;;;;10268608;28;95982;-63
2023/07/08 15:58:59;;;;;;;;;;;23.80;60.30;;;;;;10288525;28;93669;-62
2023/07/08 16:04:01;;;;;;;;;;;23.90;60.40;;;;;;10289008;28;93253;-63
2023/07/08 16:09:03;;;;;;;;;;;23.80;60.40;;;;;;10271638;28;94513;-68
2023/07/08 16:14:05;;;;;;;;;;;23.90;60.30;;;;;;10271245;28;93568;-63
2023/07/08 16:19:09;;;;;;;;;;;23.90;60.30;;;;;;10288196;28;94619;-63
2023/07/08 16:24:11;;;;;;;;;;;23.90;60.30;;;;;;10287743;28;94534;-63
2023/07/08 16:29:15;;;;;;;;;;;23.90;60.30;;;;;;10287293;28;93248;-63
2023/07/08 16:34:17;;;;;;;;;;;23.90;60.30;;;;;;10270703;28;96877;-63
2023/07/08 16:39:18;;;;;;;;;;;24.00;60.40;;;;;;10287332;28;94651;-63
2023/07/08 16:44:20;;;;;;;;;;;23.90;60.40;;;;;;10283939;28;96059;-63
2023/07/08 16:49:22;;;;;;;;;;;24.00;60.40;;;;;;10284674;28;94698;-63
2023/07/08 16:54:24;;;;;;;;;;;24.00;60.40;;;;;;10288539;28;92556;-63
2023/07/08 16:59:26;;;;;;;;;;;24.00;60.40;;;;;;10287495;28;93268;-63
2023/07/08 17:04:28;;;;;;;;;;;24.00;60.40;;;;;;10269383;28;94626;-62
2023/07/08 17:09:30;;;;;;;;;;;24.00;60.40;;;;;;10286898;28;93604;-63
2023/07/08 17:14:32;;;;;;;;;;;24.00;60.40;;;;;;10269636;28;94515;-63
2023/07/08 17:19:33;;;;;;;;;;;24.00;60.40;;;;;;10288200;28;92929;-63
2023/07/08 17:24:35;;;;;;;;;;;24.00;60.40;;;;;;10286972;28;94974;-63
2023/07/08 17:29:37;;;;;;;;;;;24.00;60.40;;;;;;10286204;28;94518;-62
2023/07/08 17:34:38;;;;;;;;;;;24.00;60.40;;;;;;10284357;28;96327;-63
2023/07/08 17:39:40;;;;;;;;;;;24.00;60.50;;;;;;10287623;28;94469;-63
2023/07/08 17:44:42;;;;;;;;;;;24.00;61.40;;;;;;10286590;28;94432;-63
2023/07/08 17:49:43;;;;;;;;;;;24.00;60.50;;;;;;10285763;28;94562;-63
2023/07/08 17:54:45;;;;;;;;;;;24.00;60.40;;;;;;10286255;28;94799;-63
2023/07/08 17:59:47;;;;;;;;;;;24.00;60.50;;;;;;10286473;28;94328;-63
2023/07/08 18:04:49;;;;;;;;;;;24.00;60.40;;;;;;10292408;28;93906;-63
2023/07/08 18:09:51;;;;;;;;;;;24.00;60.40;;;;;;10291870;28;92026;-63
2023/07/08 18:14:52;;;;;;;;;;;24.10;60.50;;;;;;10292235;28;94579;-62
2023/07/08 18:19:54;;;;;;;;;;;24.00;60.40;;;;;;10292217;28;94727;-63
2023/07/08 18:24:56;;;;;;;;;;;24.10;60.40;;;;;;10289599;28;96910;-61
2023/07/08 18:29:58;;;;;;;;;;;24.10;60.40;;;;;;10291233;28;93128;-63
2023/07/08 18:34:59;;;;;;;;;;;24.20;60.40;;;;;;10292168;28;94596;-63
2023/07/08 18:40:01;;;;;;;;;;;24.20;60.30;;;;;;10290712;28;93559;-63
2023/07/08 18:45:03;;;;;;;;;;;24.20;60.30;;;;;;10291287;28;94520;-63
2023/07/08 18:50:06;;;;;;;;;;;24.20;60.40;;;;;;10289928;28;93530;-63
2023/07/08 18:55:12;;;;;;;;;;;24.20;60.50;;;;;;10291514;28;94581;-63
2023/07/08 19:00:15;;;;;;;;;;;24.20;60.50;;;;;;10291975;28;93869;-63
2023/07/08 19:05:17;;;;;;;;;;;24.20;60.60;;;;;;10291589;28;94127;-63
2023/07/08 19:10:20;;;;;;;;;;;24.20;60.60;;;;;;10272310;28;94330;-63
2023/07/08 19:15:24;;;;;;;;;;;24.20;60.70;;;;;;10286227;28;96976;-63
2023/07/08 19:20:29;;;;;;;;;;;24.20;60.80;;;;;;10271822;28;93711;-63
2023/07/08 19:25:31;;;;;;;;;;;24.20;60.70;;;;;;10289929;28;93673;-63
2023/07/08 19:30:34;;;;;;;;;;;24.20;60.80;;;;;;10289455;28;93531;-63
2023/07/08 19:35:43;;;;;;;;;;;24.20;60.90;;;;;;10288831;28;93846;-63
2023/07/08 19:40:47;;;;;;;;;;;24.20;60.90;;;;;;10289760;28;92621;-70
2023/07/08 19:45:49;;;;;;;;;;;24.10;60.90;;;;;;10288932;28;92773;-70
2023/07/08 19:50:51;;;;;;;;;;;24.10;60.90;;;;;;10289529;28;93737;-70
2023/07/08 19:55:57;;;;;;;;;;;24.10;60.90;;;;;;10271419;28;93774;-63
2023/07/08 20:00:58;;;;;;;;;;;24.10;61.00;;;;;;10288930;28;94478;-63
2023/07/08 20:06:01;;;;;;;;;;;24.10;61.00;;;;;;10286625;28;96929;-63
2023/07/08 20:11:04;;;;;;;;;;;24.10;61.00;;;;;;10269527;28;93497;-63
2023/07/08 20:16:17;;;;;;;;;;;24.10;61.10;;;;;;10288209;28;94560;-63
2023/07/08 20:21:19;;;;;;;;;;;24.00;61.00;;;;;;10288099;28;92872;-63
2023/07/08 20:26:25;;;;;;;;;;;24.10;61.10;;;;;;10287962;28;94534;-63
2023/07/08 20:31:27;;;;;;;;;;;24.10;61.10;;;;;;10271256;28;94630;-63
2023/07/08 20:36:29;;;;;;;;;;;24.00;61.10;;;;;;10286667;28;93949;-63
2023/07/08 20:41:31;;;;;;;;;;;24.00;61.00;;;;;;10288535;28;93027;-63
2023/07/08 20:46:32;;;;;;;;;;;24.00;61.00;;;;;;10269693;28;93645;-63
2023/07/08 20:51:34;;;;;;;;;;;24.00;61.20;;;;;;10286752;28;93441;-63
2023/07/08 20:56:36;;;;;;;;;;;24.00;61.10;;;;;;10284804;28;96331;-63
2023/07/08 21:01:38;;;;;;;;;;;24.00;61.10;;;;;;10287406;28;94486;-63
2023/07/08 21:06:40;;;;;;;;;;;24.00;61.10;;;;;;10285560;28;93480;-63
2023/07/08 21:11:42;;;;;;;;;;;24.00;61.00;;;;;;10286305;28;93545;-63
2023/07/08 21:16:44;;;;;;;;;;;24.00;61.10;;;;;;10286051;28;93512;-63
2023/07/08 21:21:46;;;;;;;;;;;24.00;61.00;;;;;;10286212;28;92890;-63
2023/07/08 21:26:48;;;;;;;;;;;24.00;61.10;;;;;;10286037;28;94626;-63
2023/07/08 21:31:49;;;;;;;;;;;24.00;61.10;;;;;;10286530;28;93050;-63
2023/07/08 21:36:51;;;;;;;;;;;24.00;61.10;;;;;;10290038;28;93784;-63
2023/07/08 21:41:53;;;;;;;;;;;24.00;61.20;;;;;;10275423;28;93829;-63
2023/07/08 21:46:55;;;;;;;;;;;24.00;61.10;;;;;;10290654;28;97225;-63
2023/07/08 21:51:57;;;;;;;;;;;24.00;61.30;;;;;;10250067;28;94328;-63
2023/07/08 21:56:58;;;;;;;;;;;24.00;62.10;;;;;;10251822;28;94459;-63
2023/07/08 22:02:00;;;;;;;;;;;24.00;61.20;;;;;;10251886;28;93863;-63
2023/07/08 22:07:04;;;;;;;;;;;24.00;61.20;;;;;;10253824;28;95914;-63
2023/07/08 22:12:10;;;;;;;;;;;24.00;61.20;;;;;;10251087;28;92523;-69
2023/07/08 22:17:14;;;;;;;;;;;24.00;61.20;;;;;;10252309;28;93956;-70
2023/07/08 22:22:18;;;;;;;;;;;24.00;61.20;;;;;;10251291;28;92665;-68
2023/07/08 22:27:20;;;;;;;;;;;24.10;61.30;;;;;;10251383;28;93699;-69
2023/07/08 22:32:22;;;;;;;;;;;24.00;61.20;;;;;;10252361;28;94724;-69
2023/07/08 22:37:23;;;;;;;;;;;24.00;61.20;;;;;;10248790;28;96362;-70
2023/07/08 22:42:25;;;;;;;;;;;24.00;61.20;;;;;;10250557;28;93574;-69
2023/07/08 22:47:28;;;;;;;;;;;24.10;61.30;;;;;;10251413;28;94547;-63
2023/07/08 22:52:32;;;;;;;;;;;24.10;61.40;;;;;;10273634;28;94413;-63
2023/07/08 22:57:34;;;;;;;;;;;24.10;61.40;;;;;;10289727;28;93516;-63
2023/07/08 23:02:35;;;;;;;;;;;24.00;61.30;;;;;;10289595;28;94481;-63
2023/07/08 23:07:37;;;;;;;;;;;24.00;61.30;;;;;;10291242;28;93446;-63
2023/07/08 23:12:39;;;;;;;;;;;24.10;61.40;;;;;;10291806;28;94114;-63
2023/07/08 23:17:42;;;;;;;;;;;24.00;61.40;;;;;;10290634;28;92897;-63
2023/07/08 23:22:45;;;;;;;;;;;24.00;61.40;;;;;;10289538;28;94456;-63
2023/07/08 23:27:46;;;;;;;;;;;24.00;61.50;;;;;;10270283;28;96264;-63
2023/07/08 23:32:48;;;;;;;;;;;24.00;61.50;;;;;;10289599;28;94632;-63
2023/07/08 23:37:52;;;;;;;;;;;24.00;61.50;;;;;;10271466;28;94107;-63
2023/07/08 23:42:54;;;;;;;;;;;24.00;61.50;;;;;;10288930;28;94094;-63
2023/07/08 23:47:56;;;;;;;;;;;24.00;61.60;;;;;;10271256;28;94675;-63
2023/07/08 23:52:59;;;;;;;;;;;24.00;61.60;;;;;;10271300;28;92863;-63
2023/07/08 23:58:00;;;;;;;;;;;24.00;61.50;;;;;;10287731;28;93667;-63
